Roy Baker — WDC2698 — position and weather

sailwx.info

Track history (hours):
 
Tides and Currents Weather Stations Pressure Air Temp Water Temp Dewpoint Dewpoint Depression Visibility Wind Speed Wind Dir Waves Ship Positions

Roy Baker

Owner: Kirby Inland Marine LP, Houston, TX. More information available from US FCC via Universal Licensing System and Coast Guard Vessel Documentation Center.

Last reported at 2015-Feb-24 21:33 UTC. Time now 2015-Mar-04 11:18 UTC.
Position N 30°00' W 089°58'.

Length 24 m; draft 2.3 m.

Type: Towing. MMSI: 366996540.

Date/timePositionNaut miles runAvg speedWind from/ knotsBaromVisibWave heightAir tempDewpointWater temp
2015-Feb-24 21:33N 30°00' W 089°58'4 3.5
2015-Feb-24 20:32N 29°58' W 090°02'4 0.7
2015-Feb-24 14:29N 29°54' W 089°59'54 3.8
2015-Feb-24 00:13N 29°34' W 090°57'4 5.8
2015-Feb-23 23:33N 29°37' W 090°60'5 5.0
2015-Feb-23 22:33N 29°38' W 091°05'2 2.4
2015-Feb-23 21:33N 29°39' W 091°08'3 3.4
2015-Feb-23 20:33N 29°41' W 091°11'5 4.7
2015-Feb-23 19:33N 29°39' W 091°16'5 5.0
2015-Feb-23 18:33N 29°39' W 091°22'  
2015-Feb-18 13:16N 29°46' W 091°37'4 5.7
2015-Feb-18 12:33N 29°44' W 091°33'6 6.0
2015-Feb-18 11:33N 29°40' W 091°27'6 6.3
2015-Feb-18 10:33N 29°38' W 091°20'6 6.3
2015-Feb-18 09:33N 29°40' W 091°14'5 4.5
2015-Feb-18 08:33N 29°41' W 091°08'5 4.9
2015-Feb-18 07:33N 29°37' W 091°04'4 3.4
2015-Feb-18 06:27N 29°37' W 090°60'56 4.1
2015-Feb-17 16:32N 29°55' W 089°58'5 2.0
2015-Feb-17 14:06N 29°57' W 090°03'  
Track history (hours):
 
Tides and Currents Weather Stations Pressure Air Temp Water Temp Dewpoint Dewpoint Depression Visibility Wind Speed Wind Dir Waves Ship Positions

Roy Baker

Owner: Kirby Inland Marine LP, Houston, TX. More information available from US FCC via Universal Licensing System and Coast Guard Vessel Documentation Center.

Last reported at 2015-Feb-24 21:33 UTC. Time now 2015-Mar-04 11:18 UTC.
Position N 30°00' W 089°58'.

Length 24 m; draft 2.3 m.

Type: Towing. MMSI: 366996540.

Date/timePositionNaut miles runAvg speedWind from/ knotsBaromVisibWave heightAir tempDewpointWater temp
2015-Feb-24 21:33N 30°00' W 089°58'4 3.5
2015-Feb-24 20:32N 29°58' W 090°02'4 0.7
2015-Feb-24 14:29N 29°54' W 089°59'54 3.8
2015-Feb-24 00:13N 29°34' W 090°57'4 5.8
2015-Feb-23 23:33N 29°37' W 090°60'5 5.0
2015-Feb-23 22:33N 29°38' W 091°05'2 2.4
2015-Feb-23 21:33N 29°39' W 091°08'3 3.4
2015-Feb-23 20:33N 29°41' W 091°11'5 4.7
2015-Feb-23 19:33N 29°39' W 091°16'5 5.0
2015-Feb-23 18:33N 29°39' W 091°22'  
2015-Feb-18 13:16N 29°46' W 091°37'4 5.7
2015-Feb-18 12:33N 29°44' W 091°33'6 6.0
2015-Feb-18 11:33N 29°40' W 091°27'6 6.3
2015-Feb-18 10:33N 29°38' W 091°20'6 6.3
2015-Feb-18 09:33N 29°40' W 091°14'5 4.5
2015-Feb-18 08:33N 29°41' W 091°08'5 4.9
2015-Feb-18 07:33N 29°37' W 091°04'4 3.4
2015-Feb-18 06:27N 29°37' W 090°60'56 4.1
2015-Feb-17 16:32N 29°55' W 089°58'5 2.0
2015-Feb-17 14:06N 29°57' W 090°03'  

Dump ship's entire track history